Time;durP1;ratioP1;P1;durP2;ratioP2;P2;SDS_P1;SDS_P2;PMS_P1;PMS_P2;Temp;Humidity;BMP_temperature;BMP_pressure;BME280_temperature;BME280_humidity;BME280_pressure;Samples;Min_cycle;Max_cycle;Signal;HPM_P1;HPM_P2
2024/03/20 00:02:14;;;;;;;81.43;58.47;;;12.10;82.60;;;;;;5047085;27;113001;-60
2024/03/20 00:04:40;;;;;;;80.97;59.65;;;12.20;82.50;;;;;;5047911;27;112638;-60
2024/03/20 00:07:05;;;;;;;83.65;59.90;;;12.30;82.00;;;;;;5045068;27;114531;-60
2024/03/20 00:09:31;;;;;;;80.95;58.50;;;12.20;81.90;;;;;;5046186;27;113178;-61
2024/03/20 00:11:57;;;;;;;78.85;57.35;;;12.00;82.80;;;;;;5046417;27;112454;-60
2024/03/20 00:14:23;;;;;;;80.25;58.75;;;12.10;83.00;;;;;;5047184;27;112606;-60
2024/03/20 00:16:48;;;;;;;80.28;57.83;;;12.10;82.90;;;;;;5046403;27;113660;-60
2024/03/20 00:19:14;;;;;;;92.25;61.55;;;12.20;82.50;;;;;;5045673;27;114107;-60
2024/03/20 00:21:40;;;;;;;84.18;62.20;;;12.20;82.50;;;;;;5046898;27;112601;-60
2024/03/20 00:24:05;;;;;;;94.63;63.47;;;12.30;82.60;;;;;;5046471;27;113824;-60
2024/03/20 00:26:31;;;;;;;94.72;65.00;;;12.30;82.60;;;;;;5045663;27;113203;-60
2024/03/20 00:28:57;;;;;;;93.80;65.55;;;12.30;82.60;;;;;;5044436;27;115473;-60
2024/03/20 00:31:22;;;;;;;89.00;63.63;;;12.30;82.80;;;;;;5034288;27;112882;-60
2024/03/20 00:33:48;;;;;;;98.03;65.43;;;12.30;83.10;;;;;;5046962;27;112855;-60
2024/03/20 00:36:14;;;;;;;95.30;65.15;;;12.30;83.10;;;;;;5045920;27;113279;-60
2024/03/20 00:38:43;;;;;;;95.95;65.80;;;12.40;83.10;;;;;;5045847;27;112999;-59
2024/03/20 00:41:08;;;;;;;94.15;66.40;;;12.30;83.10;;;;;;5046733;27;112779;-59
2024/03/20 00:43:36;;;;;;;97.32;64.78;;;12.20;83.50;;;;;;5046934;27;112835;-60
2024/03/20 00:46:01;;;;;;;102.80;69.15;;;12.20;83.70;;;;;;5045479;27;113181;-60
2024/03/20 00:48:27;;;;;;;102.20;70.53;;;12.10;84.10;;;;;;5030823;27;113853;-60
2024/03/20 00:50:53;;;;;;;97.65;69.50;;;12.10;84.00;;;;;;5011442;27;112546;-60
2024/03/20 00:53:18;;;;;;;101.90;70.90;;;12.10;84.10;;;;;;5046760;27;112907;-60
2024/03/20 00:55:44;;;;;;;101.43;69.57;;;12.10;84.50;;;;;;5045566;27;113693;-60
2024/03/20 00:58:11;;;;;;;102.22;71.15;;;12.00;84.60;;;;;;5045678;27;113892;-59
2024/03/20 01:00:38;;;;;;;107.00;72.10;;;12.10;84.70;;;;;;5046225;27;112475;-59
2024/03/20 01:03:04;;;;;;;109.63;73.60;;;12.00;84.70;;;;;;5045391;27;113068;-61
2024/03/20 01:05:29;;;;;;;110.32;73.40;;;12.00;84.70;;;;;;5037196;27;116831;-60
2024/03/20 01:07:55;;;;;;;115.70;76.68;;;11.90;84.60;;;;;;5054398;27;112945;-60
2024/03/20 01:10:21;;;;;;;114.70;75.75;;;11.90;84.90;;;;;;5053241;27;112630;-60
2024/03/20 01:12:47;;;;;;;121.50;77.03;;;11.90;85.10;;;;;;5053510;27;113037;-59
2024/03/20 01:15:13;;;;;;;114.65;74.40;;;11.90;85.00;;;;;;5050557;27;114852;-60
2024/03/20 01:17:39;;;;;;;112.80;75.13;;;11.80;84.90;;;;;;5045614;27;114725;-60
2024/03/20 01:20:05;;;;;;;111.47;74.18;;;11.70;85.20;;;;;;5049544;27;112833;-60
2024/03/20 01:22:35;;;;;;;117.80;74.88;;;11.70;85.20;;;;;;5049467;27;112657;-60
2024/03/20 01:25:07;;;;;;;107.40;72.40;;;11.70;85.30;;;;;;5048356;27;115021;-60
2024/03/20 01:27:33;;;;;;;;;;;11.80;85.00;;;;;;5049329;27;112905;-60
2024/03/20 01:29:59;;;;;;;113.07;74.13;;;11.80;84.70;;;;;;5051856;27;112692;-60
2024/03/20 01:32:25;;;;;;;108.80;73.03;;;11.70;85.00;;;;;;5049892;27;112783;-59
2024/03/20 01:34:51;;;;;;;114.47;74.13;;;11.70;84.80;;;;;;5048727;27;112955;-60
2024/03/20 01:37:16;;;;;;;107.20;74.00;;;11.60;85.00;;;;;;5048400;27;112804;-60
2024/03/20 01:39:42;;;;;;;119.93;79.47;;;11.60;85.20;;;;;;5034763;27;112787;-59
2024/03/20 01:42:08;;;;;;;113.70;75.28;;;11.70;85.20;;;;;;5049691;27;112830;-59
2024/03/20 01:44:34;;;;;;;109.70;74.35;;;11.60;85.20;;;;;;5048138;27;114408;-59
2024/03/20 01:47:02;;;;;;;121.13;78.10;;;11.60;85.30;;;;;;5042319;27;112628;-59
2024/03/20 01:49:30;;;;;;;123.75;80.00;;;11.60;85.10;;;;;;5041487;27;112729;-60
2024/03/20 01:51:57;;;;;;;115.88;78.22;;;11.60;85.20;;;;;;5048961;27;112748;-59
2024/03/20 01:54:23;;;;;;;117.85;78.43;;;11.80;85.30;;;;;;5048403;27;113400;-60
2024/03/20 01:56:48;;;;;;;132.50;83.63;;;11.80;84.90;;;;;;5013033;27;113667;-59
2024/03/20 01:59:14;;;;;;;122.70;82.88;;;11.90;84.80;;;;;;5049200;27;112896;-60
2024/03/20 02:01:40;;;;;;;123.47;81.28;;;11.80;85.10;;;;;;5048877;27;112667;-60
2024/03/20 02:04:06;;;;;;;117.43;76.97;;;11.80;85.30;;;;;;5030223;27;114735;-60
2024/03/20 02:06:33;;;;;;;120.88;77.30;;;11.60;85.60;;;;;;5047645;27;113830;-59
2024/03/20 02:08:59;;;;;;;119.53;76.57;;;11.70;85.60;;;;;;5048901;27;112793;-59
2024/03/20 02:11:27;;;;;;;120.35;77.85;;;11.80;85.40;;;;;;5049087;27;112777;-61
2024/03/20 02:13:55;;;;;;;116.18;75.68;;;11.80;85.60;;;;;;5047381;27;115766;-59
2024/03/20 02:16:22;;;;;;;127.68;80.25;;;11.90;85.40;;;;;;5047871;27;112794;-60
2024/03/20 02:18:49;;;;;;;118.13;75.22;;;11.90;85.10;;;;;;5048702;27;112689;-59
2024/03/20 02:21:22;;;;;;;114.32;74.38;;;11.90;85.00;;;;;;5048629;27;112805;-59
2024/03/20 02:23:51;;;;;;;121.68;78.80;;;12.10;84.80;;;;;;5047552;27;114791;-59
2024/03/20 02:26:17;;;;;;;116.22;76.15;;;12.10;84.60;;;;;;5047404;27;112639;-60
2024/03/20 02:28:44;;;;;;;119.35;76.35;;;12.10;84.80;;;;;;5048616;27;112568;-60
2024/03/20 02:31:14;;;;;;;106.65;72.10;;;12.10;84.50;;;;;;5047994;27;112800;-60
2024/03/20 02:33:41;;;;;;;100.80;68.35;;;12.10;84.50;;;;;;5047378;27;114493;-59
2024/03/20 02:36:06;;;;;;;97.80;68.25;;;12.30;84.30;;;;;;5047471;27;112619;-59
2024/03/20 02:38:37;;;;;;;100.32;69.25;;;12.40;83.80;;;;;;5048448;27;113011;-60
2024/03/20 02:41:03;;;;;;;112.20;73.63;;;12.40;83.50;;;;;;5048273;27;112653;-60
2024/03/20 02:43:29;;;;;;;114.22;74.25;;;12.40;83.50;;;;;;5047540;27;114807;-60
2024/03/20 02:45:55;;;;;;;112.80;75.97;;;12.40;83.50;;;;;;5047367;27;112564;-60
2024/03/20 02:48:21;;;;;;;113.60;73.15;;;12.30;83.70;;;;;;5033536;27;113097;-59
2024/03/20 02:50:47;;;;;;;110.65;75.40;;;12.30;83.90;;;;;;5047932;27;112700;-60
2024/03/20 02:53:13;;;;;;;109.70;75.03;;;12.30;84.00;;;;;;5046908;27;114384;-60
2024/03/20 02:55:40;;;;;;;111.43;73.78;;;12.30;84.00;;;;;;5047416;27;112609;-60
2024/03/20 02:58:06;;;;;;;113.28;72.95;;;12.20;84.30;;;;;;5048047;27;112623;-60
2024/03/20 03:00:32;;;;;;;107.05;70.43;;;12.20;84.20;;;;;;5048061;27;112916;-60
2024/03/20 03:02:58;;;;;;;114.70;73.75;;;12.20;84.10;;;;;;5047343;27;113616;-59
2024/03/20 03:05:25;;;;;;;110.15;72.20;;;12.20;84.30;;;;;;5047711;27;112571;-60
2024/03/20 03:07:52;;;;;;;113.53;73.18;;;12.20;84.50;;;;;;5048111;27;112821;-60
2024/03/20 03:10:19;;;;;;;106.30;69.75;;;12.10;84.40;;;;;;5048167;27;112813;-60
2024/03/20 03:12:46;;;;;;;108.22;70.15;;;12.20;84.40;;;;;;5046589;27;114360;-60
2024/03/20 03:15:12;;;;;;;116.35;74.95;;;12.20;84.30;;;;;;5046602;27;113006;-60
2024/03/20 03:17:39;;;;;;;106.18;72.47;;;12.10;83.90;;;;;;5048067;27;112861;-59
2024/03/20 03:20:06;;;;;;;115.18;75.22;;;12.20;84.30;;;;;;5048179;27;113675;-59
2024/03/20 03:22:32;;;;;;;106.57;69.85;;;12.10;84.20;;;;;;5046724;27;113393;-60
2024/03/20 03:24:58;;;;;;;108.05;70.97;;;11.90;84.40;;;;;;5046596;27;114111;-60
2024/03/20 03:27:23;;;;;;;108.85;70.18;;;11.90;84.60;;;;;;5047746;27;112797;-60
2024/03/20 03:29:49;;;;;;;113.18;72.72;;;11.90;84.40;;;;;;5047761;27;112796;-59
2024/03/20 03:32:15;;;;;;;121.28;73.85;;;11.90;84.40;;;;;;5046780;27;113446;-59
2024/03/20 03:34:40;;;;;;;114.82;73.43;;;11.70;84.60;;;;;;5046760;27;113821;-59
2024/03/20 03:37:06;;;;;;;121.63;73.55;;;11.70;85.10;;;;;;5047705;27;112895;-60
2024/03/20 03:39:31;;;;;;;105.60;67.85;;;11.70;85.30;;;;;;5047268;27;112868;-59
2024/03/20 03:41:57;;;;;;;112.95;70.68;;;11.70;85.20;;;;;;5045401;27;113763;-59
2024/03/20 03:44:23;;;;;;;114.32;73.05;;;11.80;85.20;;;;;;5046343;27;112810;-60
2024/03/20 03:46:51;;;;;;;103.78;67.43;;;11.80;84.90;;;;;;5042834;27;112883;-59
2024/03/20 03:49:17;;;;;;;101.88;66.05;;;11.80;84.80;;;;;;5038105;27;112665;-59
2024/03/20 03:51:43;;;;;;;100.22;62.72;;;11.70;84.80;;;;;;5027723;27;114670;-59
2024/03/20 03:54:08;;;;;;;105.65;66.32;;;11.70;84.60;;;;;;5037955;27;113215;-60
2024/03/20 03:56:34;;;;;;;105.40;67.55;;;11.60;85.00;;;;;;5027455;27;113128;-59
2024/03/20 03:58:59;;;;;;;117.07;70.30;;;11.60;85.00;;;;;;5030507;27;112690;-58
2024/03/20 04:01:25;;;;;;;109.35;68.00;;;11.60;85.00;;;;;;5045141;27;113264;-60
2024/03/20 04:03:51;;;;;;;104.72;66.40;;;11.70;85.10;;;;;;5031720;27;113342;-59
2024/03/20 04:06:17;;;;;;;99.68;65.55;;;11.70;84.90;;;;;;5047702;27;112939;-59
2024/03/20 04:08:42;;;;;;;109.88;68.05;;;11.60;84.70;;;;;;5046764;27;112933;-60
2024/03/20 04:11:08;;;;;;;104.90;66.45;;;11.60;84.50;;;;;;5038328;27;113528;-59
2024/03/20 04:13:34;;;;;;;104.28;66.63;;;11.40;85.00;;;;;;5038986;27;113694;-58
2024/03/20 04:15:59;;;;;;;108.38;68.90;;;11.50;85.00;;;;;;5046674;27;112970;-59
2024/03/20 04:18:25;;;;;;;102.82;66.50;;;11.40;85.00;;;;;;5047156;27;113134;-60
2024/03/20 04:20:51;;;;;;;116.50;71.93;;;11.40;85.30;;;;;;5045885;27;114555;-59
2024/03/20 04:23:16;;;;;;;110.30;68.20;;;11.30;85.40;;;;;;5046102;27;112734;-59
2024/03/20 04:25:42;;;;;;;105.30;66.82;;;11.20;85.50;;;;;;5046736;27;112903;-59
2024/03/20 04:28:08;;;;;;;105.15;66.55;;;11.20;85.70;;;;;;5039639;27;112776;-59
2024/03/20 04:30:34;;;;;;;104.10;66.93;;;11.20;85.70;;;;;;5038964;27;113121;-59
2024/03/20 04:33:00;;;;;;;108.60;68.93;;;11.20;85.60;;;;;;5045755;27;112741;-59
2024/03/20 04:35:25;;;;;;;103.38;67.18;;;11.20;85.60;;;;;;5046870;27;112666;-59
2024/03/20 04:37:51;;;;;;;107.80;68.43;;;11.20;85.60;;;;;;5046813;27;112674;-59
2024/03/20 04:40:17;;;;;;;109.20;67.82;;;11.20;85.40;;;;;;5045390;27;114831;-60
2024/03/20 04:42:42;;;;;;;108.13;69.45;;;11.10;85.60;;;;;;5045596;27;112726;-59
2024/03/20 04:45:14;;;;;;;111.40;68.72;;;11.10;85.40;;;;;;5046668;27;112793;-60
2024/03/20 04:47:40;;;;;;;108.20;70.00;;;11.00;85.30;;;;;;5047013;27;112762;-59
2024/03/20 04:50:10;;;;;;;115.10;71.13;;;10.90;85.60;;;;;;5045517;27;113427;-60
2024/03/20 04:52:35;;;;;;;98.10;65.93;;;10.90;85.70;;;;;;5045709;27;113036;-60
2024/03/20 04:55:01;;;;;;;113.13;72.75;;;10.90;85.50;;;;;;5049743;27;112503;-59
2024/03/20 04:57:27;;;;;;;107.15;69.15;;;10.80;85.80;;;;;;5050038;27;112773;-60
2024/03/20 04:59:53;;;;;;;111.05;70.05;;;10.80;86.00;;;;;;5049054;27;113257;-59
2024/03/20 05:02:18;;;;;;;102.20;67.15;;;10.80;86.00;;;;;;5041858;27;113254;-60
2024/03/20 05:04:44;;;;;;;115.32;72.25;;;10.60;86.00;;;;;;5044206;27;112932;-60
2024/03/20 05:07:10;;;;;;;114.13;71.18;;;10.60;86.10;;;;;;5050045;27;112822;-60
2024/03/20 05:09:35;;;;;;;107.50;66.15;;;10.60;86.20;;;;;;5049010;27;114376;-60
2024/03/20 05:12:01;;;;;;;108.93;68.28;;;10.60;86.30;;;;;;5048384;27;113557;-59
2024/03/20 05:14:26;;;;;;;97.88;65.40;;;10.60;86.30;;;;;;5049960;27;112431;-59
2024/03/20 05:16:52;;;;;;;108.60;69.88;;;10.60;86.50;;;;;;5049471;27;113077;-59
2024/03/20 05:19:18;;;;;;;109.32;69.68;;;10.60;86.60;;;;;;5049083;27;113758;-60
2024/03/20 05:21:44;;;;;;;107.97;67.18;;;10.60;86.60;;;;;;5048879;27;112928;-60
2024/03/20 05:24:09;;;;;;;106.53;68.82;;;10.60;86.60;;;;;;5031219;27;112999;-60
2024/03/20 05:26:35;;;;;;;117.35;71.72;;;10.50;86.70;;;;;;5049781;27;113168;-57
2024/03/20 05:29:01;;;;;;;103.00;66.78;;;10.60;86.50;;;;;;5048559;27;113806;-58
2024/03/20 05:31:30;;;;;;;108.32;66.90;;;10.70;86.30;;;;;;5048648;27;112878;-58
2024/03/20 05:33:56;;;;;;;104.63;65.47;;;10.70;86.10;;;;;;5049336;27;112819;-58
2024/03/20 05:36:22;;;;;;;99.88;64.72;;;10.70;86.00;;;;;;5049670;27;112638;-59
2024/03/20 05:38:49;;;;;;;96.65;63.83;;;10.70;85.90;;;;;;5048406;27;113476;-59
2024/03/20 05:41:14;;;;;;;97.75;64.10;;;10.70;85.80;;;;;;5047967;27;112839;-60
2024/03/20 05:43:41;;;;;;;96.43;63.83;;;10.80;85.70;;;;;;5049618;27;113366;-59
2024/03/20 05:46:09;;;;;;;105.55;65.55;;;10.80;85.60;;;;;;5049339;27;112865;-60
2024/03/20 05:48:36;;;;;;;99.65;63.25;;;10.80;85.60;;;;;;5048394;27;113255;-59
2024/03/20 05:51:02;;;;;;;93.18;59.83;;;10.80;85.60;;;;;;5048030;27;112596;-59
2024/03/20 05:53:27;;;;;;;91.50;60.15;;;10.90;85.50;;;;;;5030720;27;112747;-59
2024/03/20 05:55:54;;;;;;;95.15;60.80;;;10.90;85.10;;;;;;5049421;27;113182;-58
2024/03/20 05:58:20;;;;;;;96.65;56.47;;;10.90;85.00;;;;;;5048599;27;114121;-59
2024/03/20 06:00:46;;;;;;;83.07;57.55;;;10.90;85.20;;;;;;5047976;27;114134;-58
2024/03/20 06:03:12;;;;;;;91.65;59.42;;;10.90;85.10;;;;;;5034524;27;112842;-58
2024/03/20 06:05:38;;;;;;;83.22;55.33;;;11.00;84.90;;;;;;5048691;27;112875;-58
2024/03/20 06:08:03;;;;;;;86.15;56.33;;;11.00;84.70;;;;;;5048240;27;114347;-59
2024/03/20 06:10:29;;;;;;;72.10;52.75;;;11.00;84.70;;;;;;5048222;27;113010;-59
2024/03/20 06:12:55;;;;;;;76.22;52.50;;;11.20;84.60;;;;;;5048672;27;112983;-59
2024/03/20 06:15:21;;;;;;;79.07;54.63;;;11.30;83.90;;;;;;5049038;27;112759;-58
2024/03/20 06:17:47;;;;;;;73.78;52.85;;;11.40;83.70;;;;;;5047956;27;113855;-58
2024/03/20 06:20:15;;;;;;;63.88;47.65;;;11.40;83.50;;;;;;5029366;27;114255;-58
2024/03/20 06:22:41;;;;;;;67.82;48.53;;;11.40;83.20;;;;;;5048747;27;113115;-59
2024/03/20 06:25:07;;;;;;;63.10;46.60;;;11.50;82.90;;;;;;5048687;27;112724;-59
2024/03/20 06:27:34;;;;;;;54.88;42.67;;;11.60;82.70;;;;;;5047638;27;113259;-59
2024/03/20 06:29:59;;;;;;;55.67;39.20;;;11.70;81.90;;;;;;5047545;27;112825;-58
2024/03/20 06:32:25;;;;;;;47.03;37.42;;;11.80;80.90;;;;;;5048551;27;112865;-59
2024/03/20 06:34:52;;;;;;;48.83;37.00;;;12.00;80.10;;;;;;5048786;27;113062;-59
2024/03/20 06:37:17;;;;;;;49.63;35.53;;;12.10;79.00;;;;;;5047225;27;114610;-59
2024/03/20 06:39:43;;;;;;;45.40;36.30;;;12.30;78.60;;;;;;5047364;27;114395;-58
2024/03/20 06:42:20;;;;;;;43.42;35.63;;;12.40;78.00;;;;;;5064008;27;112726;-59
2024/03/20 06:44:50;;;;;;;41.75;34.35;;;12.60;77.70;;;;;;5048388;27;112843;-59
2024/03/20 06:47:17;;;;;;;38.80;31.80;;;12.80;77.30;;;;;;5047527;27;113239;-59
2024/03/20 06:49:44;;;;;;;37.80;31.88;;;13.10;76.20;;;;;;5047372;27;113810;-57
2024/03/20 06:52:12;;;;;;;37.60;29.80;;;13.30;74.60;;;;;;5048294;27;113140;-58
2024/03/20 06:54:42;;;;;;;31.70;28.02;;;13.20;73.50;;;;;;5048080;27;112759;-59
2024/03/20 06:57:10;;;;;;;32.70;27.58;;;13.30;73.70;;;;;;5047180;27;114336;-59
2024/03/20 06:59:39;;;;;;;30.20;26.77;;;13.40;73.10;;;;;;5046951;27;112685;-59
2024/03/20 07:02:06;;;;;;;30.90;26.63;;;13.40;72.90;;;;;;5042499;27;113002;-59
2024/03/20 07:04:32;;;;;;;29.02;24.23;;;13.40;72.40;;;;;;5041694;27;112758;-58
2024/03/20 07:06:58;;;;;;;28.50;21.88;;;13.60;71.00;;;;;;5038016;27;114519;-60
2024/03/20 07:09:25;;;;;;;26.48;21.77;;;13.70;70.10;;;;;;5037013;27;112625;-59
2024/03/20 07:11:50;;;;;;;26.13;21.88;;;13.90;69.30;;;;;;5036413;27;112792;-59
2024/03/20 07:14:17;;;;;;;24.48;21.25;;;14.10;67.30;;;;;;5025296;27;112934;-59
2024/03/20 07:16:44;;;;;;;24.63;21.13;;;14.30;67.30;;;;;;5027578;27;114768;-59
2024/03/20 07:19:10;;;;;;;22.55;19.42;;;14.40;67.30;;;;;;5032183;27;112736;-59
2024/03/20 07:21:37;;;;;;;22.13;18.80;;;14.80;65.90;;;;;;5045754;27;112911;-59
2024/03/20 07:24:03;;;;;;;21.30;18.80;;;15.20;63.70;;;;;;5047286;27;112711;-59
2024/03/20 07:26:32;;;;;;;22.83;18.63;;;15.50;63.30;;;;;;5036533;27;115561;-59
2024/03/20 07:28:57;;;;;;;18.95;16.75;;;15.70;62.50;;;;;;5027760;27;113760;-58
2024/03/20 07:31:23;;;;;;;22.08;17.80;;;16.00;59.20;;;;;;5017244;27;112658;-59
2024/03/20 07:33:48;;;;;;;19.48;15.25;;;16.10;58.30;;;;;;5047563;27;112827;-59
2024/03/20 07:36:14;;;;;;;17.23;13.30;;;16.30;57.70;;;;;;5046233;27;114401;-59
2024/03/20 07:38:40;;;;;;;13.13;11.68;;;16.30;56.40;;;;;;5046504;27;112871;-59
2024/03/20 07:41:06;;;;;;;12.65;11.30;;;16.40;54.70;;;;;;5034148;27;112733;-60
2024/03/20 07:43:32;;;;;;;13.60;12.20;;;16.40;53.60;;;;;;5047169;27;112784;-60
2024/03/20 07:45:58;;;;;;;13.95;12.40;;;15.70;56.00;;;;;;5045602;27;114872;-60
2024/03/20 07:48:23;;;;;;;14.20;12.45;;;15.80;56.40;;;;;;5046489;27;114411;-59
2024/03/20 07:50:55;;;;;;;14.93;12.48;;;15.70;55.90;;;;;;5036743;27;112550;-59
2024/03/20 07:53:21;;;;;;;14.18;11.35;;;15.60;56.50;;;;;;5047236;27;112841;-59
2024/03/20 07:55:50;;;;;;;12.98;11.20;;;15.40;56.70;;;;;;5034733;27;113186;-59
2024/03/20 07:58:19;;;;;;;12.32;10.88;;;15.10;57.10;;;;;;5039977;27;113614;-59
2024/03/20 08:00:44;;;;;;;12.77;10.82;;;15.40;57.10;;;;;;5038999;27;112804;-59
2024/03/20 08:03:11;;;;;;;12.00;10.20;;;15.60;56.90;;;;;;5032143;27;113073;-59
2024/03/20 08:05:37;;;;;;;12.07;10.23;;;15.90;54.60;;;;;;5046614;27;113203;-59
2024/03/20 08:08:04;;;;;;;10.75;9.75;;;16.30;52.80;;;;;;5045566;27;113019;-59
2024/03/20 08:10:30;;;;;;;11.40;10.20;;;16.40;52.10;;;;;;5047419;27;112882;-59
2024/03/20 08:12:55;;;;;;;12.45;10.80;;;16.60;53.90;;;;;;5046580;27;113085;-60
2024/03/20 08:15:21;;;;;;;14.07;11.88;;;16.80;52.90;;;;;;5045567;27;113092;-60
2024/03/20 08:17:47;;;;;;;15.05;11.38;;;16.50;52.20;;;;;;5039408;27;112850;-59
2024/03/20 08:20:13;;;;;;;11.80;10.35;;;16.40;54.00;;;;;;5046732;27;112934;-59
2024/03/20 08:22:42;;;;;;;13.52;10.63;;;16.70;53.20;;;;;;5046928;27;112821;-59
2024/03/20 08:25:10;;;;;;;11.70;10.50;;;16.70;51.80;;;;;;5046051;27;113155;-59
2024/03/20 08:27:36;;;;;;;15.45;12.25;;;16.80;52.00;;;;;;5040914;27;113275;-59
2024/03/20 08:30:06;;;;;;;13.70;12.30;;;16.90;51.70;;;;;;5028989;27;112647;-59
2024/03/20 08:32:31;;;;;;;14.45;12.35;;;17.00;52.90;;;;;;5044191;27;112659;-59
2024/03/20 08:34:58;;;;;;;14.70;12.40;;;16.90;53.20;;;;;;5027146;27;114579;-58
2024/03/20 08:37:24;;;;;;;14.13;12.25;;;16.90;52.40;;;;;;5040403;27;113170;-59
2024/03/20 08:39:52;;;;;;;13.98;12.57;;;17.20;53.00;;;;;;5042810;27;112673;-59
2024/03/20 08:42:17;;;;;;;14.75;13.18;;;17.30;52.50;;;;;;5046427;27;112705;-60
2024/03/20 08:44:44;;;;;;;13.60;12.30;;;17.10;51.90;;;;;;5045680;27;113239;-60
2024/03/20 08:47:10;;;;;;;14.18;12.13;;;17.00;52.40;;;;;;5044996;27;113018;-58
2024/03/20 08:49:38;;;;;;;13.30;12.00;;;17.10;51.90;;;;;;5046398;27;112592;-59
2024/03/20 08:52:06;;;;;;;13.38;12.00;;;17.40;50.40;;;;;;5044534;27;112750;-60
2024/03/20 08:54:35;;;;;;;12.88;11.52;;;17.70;50.40;;;;;;5042406;27;113160;-60
2024/03/20 08:57:03;;;;;;;13.05;11.75;;;18.10;50.40;;;;;;5044689;27;113403;-59
2024/03/20 08:59:31;;;;;;;13.50;12.10;;;18.40;49.10;;;;;;5035045;27;112508;-60
2024/03/20 09:01:57;;;;;;;13.88;12.20;;;18.70;48.60;;;;;;5041631;27;113889;-59
2024/03/20 09:04:23;;;;;;;13.75;12.45;;;19.00;49.10;;;;;;5050225;27;114592;-60
2024/03/20 09:06:49;;;;;;;14.40;12.98;;;18.90;49.70;;;;;;5031053;27;113814;-61
2024/03/20 09:09:15;;;;;;;15.85;14.35;;;18.90;49.90;;;;;;5042679;27;112721;-60
2024/03/20 09:11:41;;;;;;;16.33;14.73;;;18.70;49.70;;;;;;5044836;27;113441;-60
2024/03/20 09:14:08;;;;;;;17.65;15.55;;;18.30;50.50;;;;;;5044037;27;113701;-61
2024/03/20 09:16:34;;;;;;;18.40;16.40;;;18.10;51.70;;;;;;5041338;27;114089;-60
2024/03/20 09:18:59;;;;;;;17.52;15.77;;;18.00;52.00;;;;;;5035164;27;114724;-58
2024/03/20 09:21:25;;;;;;;17.63;15.52;;;18.20;52.00;;;;;;5050637;27;113014;-61
2024/03/20 09:23:51;;;;;;;18.67;16.77;;;18.40;52.00;;;;;;5044059;27;114724;-61
2024/03/20 09:26:17;;;;;;;21.30;17.00;;;18.40;51.20;;;;;;5043478;27;112785;-59
2024/03/20 09:28:43;;;;;;;19.15;17.30;;;18.70;51.30;;;;;;5045174;27;112911;-60
2024/03/20 09:31:08;;;;;;;19.98;16.80;;;18.80;50.50;;;;;;5045051;27;112658;-60
2024/03/20 09:33:34;;;;;;;19.75;17.67;;;18.90;50.90;;;;;;5044232;27;113203;-61
2024/03/20 09:36:00;;;;;;;18.45;16.27;;;19.30;49.90;;;;;;5044074;27;113452;-60
2024/03/20 09:38:25;;;;;;;18.83;16.85;;;19.80;48.60;;;;;;5026598;27;113236;-60
2024/03/20 09:40:51;;;;;;;21.35;17.85;;;19.90;47.70;;;;;;5046949;27;112757;-61
2024/03/20 09:43:18;;;;;;;18.92;17.00;;;20.20;47.80;;;;;;5046996;27;113379;-61
2024/03/20 09:45:44;;;;;;;21.10;18.15;;;20.20;47.60;;;;;;5047256;27;112616;-61
2024/03/20 09:48:10;;;;;;;20.35;18.25;;;20.20;47.20;;;;;;5043028;27;112999;-61
2024/03/20 09:50:38;;;;;;;20.45;18.35;;;20.10;47.50;;;;;;5041310;27;113156;-61
2024/03/20 09:53:05;;;;;;;18.92;16.95;;;20.10;47.30;;;;;;5045244;27;114777;-60
2024/03/20 09:55:32;;;;;;;18.70;16.77;;;20.30;48.00;;;;;;5047436;27;112954;-61
2024/03/20 09:57:58;;;;;;;19.23;17.23;;;20.90;46.90;;;;;;5045564;27;113080;-60
2024/03/20 10:00:25;;;;;;;20.02;17.65;;;21.40;46.50;;;;;;5043362;27;113043;-60
2024/03/20 10:02:52;;;;;;;18.08;16.20;;;21.70;45.40;;;;;;5040252;27;114358;-61
2024/03/20 10:05:18;;;;;;;19.15;17.20;;;21.60;45.60;;;;;;5047485;27;112881;-61
2024/03/20 10:07:45;;;;;;;19.65;17.65;;;21.50;45.40;;;;;;5048067;27;113058;-59
2024/03/20 10:10:13;;;;;;;19.75;17.77;;;21.80;45.00;;;;;;5047844;27;112983;-61
2024/03/20 10:12:49;;;;;;;19.30;17.40;;;21.90;44.90;;;;;;5044409;27;113558;-61
2024/03/20 10:15:22;;;;;;;19.83;16.98;;;21.80;45.00;;;;;;5046800;27;113700;-61
2024/03/20 10:17:48;;;;;;;18.83;16.88;;;21.50;45.40;;;;;;5048386;27;112598;-61
2024/03/20 10:20:16;;;;;;;18.95;17.13;;;21.90;45.10;;;;;;5047746;27;112887;-60
2024/03/20 10:22:45;;;;;;;18.33;16.42;;;21.40;46.30;;;;;;5046949;27;114495;-61
2024/03/20 10:25:18;;;;;;;19.02;16.58;;;22.30;45.60;;;;;;5046930;27;114096;-60
2024/03/20 10:27:45;;;;;;;18.58;16.45;;;23.10;43.60;;;;;;5043437;27;112676;-60
2024/03/20 10:30:20;;;;;;;17.83;16.13;;;24.70;41.60;;;;;;5048226;27;113029;-60
2024/03/20 10:32:48;;;;;;;17.45;15.73;;;28.10;36.50;;;;;;5041038;27;113576;-60
2024/03/20 10:35:15;;;;;;;18.25;16.27;;;29.30;34.30;;;;;;5028355;27;113677;-61
2024/03/20 10:37:45;;;;;;;16.98;15.30;;;30.90;32.40;;;;;;5045867;27;112895;-60
2024/03/20 10:40:21;;;;;;;17.90;16.02;;;32.50;30.90;;;;;;5047649;27;112869;-61
2024/03/20 10:42:49;;;;;;;19.13;17.38;;;32.30;29.90;;;;;;5043924;27;114772;-61
2024/03/20 10:45:15;;;;;;;19.75;17.90;;;32.50;30.00;;;;;;5037444;27;113804;-60
2024/03/20 10:47:42;;;;;;;19.33;17.60;;;32.30;29.40;;;;;;5047058;27;113234;-61
2024/03/20 10:50:16;;;;;;;18.88;17.27;;;34.10;27.90;;;;;;5045660;27;112664;-59
2024/03/20 10:52:44;;;;;;;17.55;16.10;;;35.00;27.40;;;;;;5045027;27;113355;-59
2024/03/20 10:55:15;;;;;;;17.92;16.42;;;37.70;24.80;;;;;;5046364;27;113840;-59
2024/03/20 10:57:41;;;;;;;17.35;15.70;;;38.30;23.80;;;;;;5047420;27;112949;-60
2024/03/20 11:00:20;;;;;;;15.18;13.73;;;39.50;22.90;;;;;;5046772;27;112717;-60
2024/03/20 11:02:47;;;;;;;14.75;13.55;;;38.90;23.20;;;;;;5044623;27;115004;-60
2024/03/20 11:05:41;;;;;;;14.35;13.15;;;37.50;23.90;;;;;;5045271;27;112652;-60
2024/03/20 11:08:09;;;;;;;13.52;12.32;;;38.60;22.90;;;;;;5045262;27;112554;-60
2024/03/20 11:10:36;;;;;;;14.88;13.68;;;38.70;22.20;;;;;;5047205;27;113656;-61
2024/03/20 11:13:03;;;;;;;12.50;11.50;;;39.30;22.90;;;;;;5045312;27;113766;-59
2024/03/20 11:15:31;;;;;;;15.75;14.45;;;41.80;21.40;;;;;;5035014;27;115048;-60
2024/03/20 11:17:59;;;;;;;17.02;15.52;;;41.50;21.00;;;;;;5043780;27;113019;-61
2024/03/20 11:20:34;;;;;;;14.57;13.43;;;42.00;20.80;;;;;;5046705;27;112681;-60
2024/03/20 11:23:06;;;;;;;13.93;12.90;;;42.70;20.10;;;;;;5045153;27;113834;-59
2024/03/20 11:25:36;;;;;;;13.73;12.55;;;41.70;20.20;;;;;;5041248;27;113713;-60
2024/03/20 11:28:02;;;;;;;14.05;12.95;;;42.20;20.50;;;;;;5045915;27;112846;-59
2024/03/20 11:30:28;;;;;;;15.13;13.73;;;40.50;20.90;;;;;;5045385;27;112931;-60
2024/03/20 11:32:54;;;;;;;14.10;12.90;;;41.10;21.10;;;;;;5045552;27;113961;-60
2024/03/20 11:35:20;;;;;;;14.50;13.40;;;43.10;19.70;;;;;;5045964;27;113257;-60
2024/03/20 11:37:47;;;;;;;14.40;13.27;;;42.40;20.10;;;;;;5046483;27;112667;-60
2024/03/20 11:40:13;;;;;;;15.70;14.50;;;43.80;19.30;;;;;;5046558;27;112931;-60
2024/03/20 11:42:40;;;;;;;15.95;14.65;;;44.20;19.20;;;;;;5044048;27;113291;-61
2024/03/20 11:45:12;;;;;;;15.23;14.07;;;42.30;20.50;;;;;;5044004;27;113071;-60
2024/03/20 11:47:38;;;;;;;14.23;12.85;;;41.80;21.00;;;;;;5044718;27;112805;-60
2024/03/20 11:50:06;;;;;;;14.20;13.10;;;38.80;21.90;;;;;;5043619;27;113143;-59
2024/03/20 11:52:32;;;;;;;16.05;14.65;;;40.20;20.90;;;;;;5040880;27;114368;-60
2024/03/20 11:54:58;;;;;;;17.90;16.40;;;39.70;22.00;;;;;;5045591;27;113160;-60
2024/03/20 11:57:24;;;;;;;15.70;14.50;;;38.80;22.20;;;;;;5042448;27;112975;-59
2024/03/20 11:59:51;;;;;;;14.95;13.68;;;42.40;20.40;;;;;;5036998;27;112946;-59
2024/03/20 12:02:19;;;;;;;15.52;14.23;;;40.10;20.80;;;;;;5039771;27;113588;-59
2024/03/20 12:04:45;;;;;;;16.27;14.77;;;35.80;24.50;;;;;;5044937;27;114560;-59
2024/03/20 12:07:26;;;;;;;;;;;36.90;24.20;;;;;;5045763;27;113149;-60
2024/03/20 12:09:51;;;;;;;15.60;14.18;;;42.40;20.30;;;;;;5047521;27;112946;-61
2024/03/20 12:12:19;;;;;;;13.93;12.82;;;43.40;19.20;;;;;;5043133;27;115170;-59